Time;durP1;ratioP1;P1;durP2;ratioP2;P2;SDS_P1;SDS_P2;PMS_P1;PMS_P2;Temp;Humidity;BMP_temperature;BMP_pressure;BME280_temperature;BME280_humidity;BME280_pressure;Samples;Min_cycle;Max_cycle;Signal;HPM_P1;HPM_P2
2022/03/31 00:00:51;;;;;;;;;;;3.40;99.90;;;;;;2602875;54;19945;31
2022/03/31 00:03:28;;;;;;;;;;;3.40;99.90;;;;;;2621712;46;19961;31
2022/03/31 00:06:07;;;;;;;;;;;3.40;99.90;;;;;;2603078;54;20766;31
2022/03/31 00:08:46;;;;;;;;;;;3.40;99.90;;;;;;2602664;54;19934;31
2022/03/31 00:11:22;;;;;;;;;;;3.50;99.90;;;;;;2621254;46;19942;31
2022/03/31 00:13:57;;;;;;;;;;;3.40;99.90;;;;;;2621525;46;20863;31
2022/03/31 00:16:34;;;;;;;;;;;3.50;99.90;;;;;;2620720;46;19983;31
2022/03/31 00:19:12;;;;;;;;;;;3.50;99.90;;;;;;2602776;54;20805;31
2022/03/31 00:22:01;;;;;;;;;;;3.50;99.90;;;;;;2621234;46;19935;31
2022/03/31 00:24:42;;;;;;;;;;;3.60;99.90;;;;;;2621208;46;19939;31
2022/03/31 00:27:16;;;;;;;;;;;3.60;99.90;;;;;;2602851;54;19939;31
2022/03/31 00:29:55;;;;;;;;;;;3.50;99.90;;;;;;2602727;54;20756;31
2022/03/31 00:32:30;;;;;;;;;;;3.60;99.90;;;;;;2621433;47;20806;31
2022/03/31 00:35:04;;;;;;;;;;;3.60;99.90;;;;;;2603029;54;19965;31
2022/03/31 00:37:42;;;;;;;;;;;3.60;99.90;;;;;;2621378;47;20011;31
2022/03/31 00:40:20;;;;;;;;;;;3.60;99.90;;;;;;2602878;54;19938;31
2022/03/31 00:42:56;;;;;;;;;;;3.50;99.90;;;;;;2602630;54;19938;31
2022/03/31 00:45:32;;;;;;;;;;;3.50;99.90;;;;;;2602144;54;19942;31
2022/03/31 00:48:08;;;;;;;;;;;3.50;99.90;;;;;;2602820;54;19934;31
2022/03/31 00:50:45;;;;;;;;;;;3.50;99.90;;;;;;2620866;47;19942;31
2022/03/31 00:53:22;;;;;;;;;;;3.50;99.90;;;;;;2615189;47;19949;31
2022/03/31 00:56:06;;;;;;;;;;;3.40;99.90;;;;;;2605891;47;19984;31
2022/03/31 00:58:43;;;;;;;;;;;3.40;99.90;;;;;;2602777;54;19938;31
2022/03/31 01:01:17;;;;;;;;;;;3.40;99.90;;;;;;2602815;54;19962;31
2022/03/31 01:03:52;;;;;;;;;;;3.40;99.90;;;;;;2621105;47;20839;31
2022/03/31 01:06:30;;;;;;;;;;;3.40;99.90;;;;;;2621051;47;20021;31
2022/03/31 01:09:05;;;;;;;;;;;3.30;99.90;;;;;;2621507;46;19935;31
2022/03/31 01:11:45;;;;;;;;;;;3.30;99.90;;;;;;2621910;46;19935;31
2022/03/31 01:14:20;;;;;;;;;;;3.30;99.90;;;;;;2603352;54;20658;31
2022/03/31 01:16:57;;;;;;;;;;;3.30;99.90;;;;;;2602728;54;19942;31
2022/03/31 01:19:33;;;;;;;;;;;3.30;99.90;;;;;;2602795;54;19950;31
2022/03/31 01:22:11;;;;;;;;;;;3.30;99.90;;;;;;2603274;54;20727;31
2022/03/31 01:24:49;;;;;;;;;;;3.30;99.90;;;;;;2603316;54;19940;31
2022/03/31 01:27:25;;;;;;;;;;;3.30;99.90;;;;;;2603443;54;19934;31
2022/03/31 01:30:01;;;;;;;;;;;3.30;99.90;;;;;;2621725;46;20666;31
2022/03/31 01:32:38;;;;;;;;;;;3.30;99.90;;;;;;2603299;54;19934;31
2022/03/31 01:35:13;;;;;;;;;;;3.30;99.90;;;;;;2622020;46;20748;31
2022/03/31 01:37:52;;;;;;;;;;;3.30;99.90;;;;;;2603412;54;20700;31
2022/03/31 01:40:30;;;;;;;;;;;3.30;99.90;;;;;;2621847;46;19985;31
2022/03/31 01:43:05;;;;;;;;;;;3.30;99.90;;;;;;2603530;54;19934;31
2022/03/31 01:45:40;;;;;;;;;;;3.60;99.90;;;;;;2621868;46;20484;31
2022/03/31 01:48:16;;;;;;;;;;;3.30;99.90;;;;;;2621443;46;20762;31
2022/03/31 01:50:50;;;;;;;;;;;3.30;99.90;;;;;;2603399;54;20770;31
2022/03/31 01:53:28;;;;;;;;;;;3.30;99.90;;;;;;2619300;46;20017;31
2022/03/31 01:56:06;;;;;;;;;;;3.30;99.90;;;;;;2614939;46;19943;31
2022/03/31 01:58:44;;;;;;;;;;;3.30;99.90;;;;;;2616530;46;20795;31
2022/03/31 02:01:18;;;;;;;;;;;3.20;99.90;;;;;;2621664;46;19989;31
2022/03/31 02:03:59;;;;;;;;;;;3.20;99.90;;;;;;2602767;54;19934;31
2022/03/31 02:06:36;;;;;;;;;;;3.20;99.90;;;;;;2621469;46;21804;31
2022/03/31 02:09:11;;;;;;;;;;;3.20;99.90;;;;;;2622119;46;20758;31
2022/03/31 02:11:48;;;;;;;;;;;3.20;99.90;;;;;;2621806;46;19942;31
2022/03/31 02:14:26;;;;;;;;;;;3.20;99.90;;;;;;2615794;46;19993;31
2022/03/31 02:17:03;;;;;;;;;;;3.20;99.90;;;;;;2603188;54;20759;31
2022/03/31 02:19:37;;;;;;;;;;;3.20;99.90;;;;;;2719889;39;20524;31
2022/03/31 02:22:14;;;;;;;;;;;3.20;99.90;;;;;;2621740;46;19989;31
2022/03/31 02:24:52;;;;;;;;;;;3.20;99.90;;;;;;2621601;46;20678;31
2022/03/31 02:27:29;;;;;;;;;;;3.20;99.90;;;;;;2610585;46;20531;31
2022/03/31 02:30:06;;;;;;;;;;;3.30;99.90;;;;;;2701756;39;20412;31
2022/03/31 02:32:44;;;;;;;;;;;3.30;99.90;;;;;;2603237;54;19935;31
2022/03/31 02:35:20;;;;;;;;;;;3.30;99.90;;;;;;2603226;54;19957;31
2022/03/31 02:37:56;;;;;;;;;;;3.30;99.90;;;;;;2701821;39;20355;31
2022/03/31 02:40:30;;;;;;;;;;;3.30;99.90;;;;;;2621796;46;19969;31
2022/03/31 02:43:08;;;;;;;;;;;3.30;99.90;;;;;;2621662;46;22301;31
2022/03/31 02:45:40;;;;;;;;;;;3.30;99.90;;;;;;2603050;54;21810;31
2022/03/31 02:48:16;;;;;;;;;;;3.30;99.90;;;;;;2606343;46;20001;31
2022/03/31 02:50:51;;;;;;;;;;;3.40;99.90;;;;;;2603084;54;19934;31
2022/03/31 02:56:14;;;;;;;;;;;3.30;99.90;;;;;;2603111;54;20714;31
2022/03/31 02:58:51;;;;;;;;;;;3.30;99.90;;;;;;2602982;54;20673;31
2022/03/31 03:01:27;;;;;;;;;;;3.30;99.90;;;;;;2602527;54;20027;31
2022/03/31 03:04:03;;;;;;;;;;;3.30;99.90;;;;;;2603215;54;20754;31
2022/03/31 03:06:39;;;;;;;;;;;3.30;99.90;;;;;;2603089;54;19981;31
2022/03/31 03:09:16;;;;;;;;;;;3.30;99.90;;;;;;2603051;54;19935;31
2022/03/31 03:11:51;;;;;;;;;;;3.30;99.90;;;;;;2621816;46;19934;31
2022/03/31 03:14:28;;;;;;;;;;;3.20;99.90;;;;;;2603070;54;19935;31
2022/03/31 03:17:06;;;;;;;;;;;3.20;99.90;;;;;;2621611;46;20837;31
2022/03/31 03:19:44;;;;;;;;;;;3.10;99.90;;;;;;2602988;54;19994;31
2022/03/31 03:22:18;;;;;;;;;;;3.10;99.90;;;;;;2603032;54;20839;31
2022/03/31 03:24:53;;;;;;;;;;;3.10;99.90;;;;;;2621549;46;19938;31
2022/03/31 03:27:29;;;;;;;;;;;3.10;99.90;;;;;;2621838;46;20778;31
2022/03/31 03:30:04;;;;;;;;;;;3.10;99.90;;;;;;2602820;54;19962;31
2022/03/31 03:32:41;;;;;;;;;;;3.10;99.90;;;;;;2603101;54;19935;31
2022/03/31 03:35:17;;;;;;;;;;;3.10;99.90;;;;;;2621821;46;20662;31
2022/03/31 03:37:52;;;;;;;;;;;3.10;99.90;;;;;;2602979;54;20683;31
2022/03/31 03:40:29;;;;;;;;;;;3.00;99.90;;;;;;2602809;54;20014;31
2022/03/31 03:43:09;;;;;;;;;;;3.00;99.90;;;;;;2621506;46;19990;31
2022/03/31 03:45:44;;;;;;;;;;;3.00;99.90;;;;;;2602357;54;19969;31
2022/03/31 03:48:23;;;;;;;;;;;3.00;99.90;;;;;;2620957;46;19934;31
2022/03/31 03:51:01;;;;;;;;;;;3.00;99.90;;;;;;2621524;46;20008;31
2022/03/31 03:53:36;;;;;;;;;;;3.00;99.90;;;;;;2621836;46;20745;31
2022/03/31 03:56:10;;;;;;;;;;;3.00;99.90;;;;;;2621424;46;19935;31
2022/03/31 03:58:45;;;;;;;;;;;3.00;99.90;;;;;;2603047;54;20822;31
2022/03/31 04:01:22;;;;;;;;;;;3.00;99.90;;;;;;2602122;54;20555;31
2022/03/31 04:04:01;;;;;;;;;;;3.00;99.90;;;;;;2613262;46;19935;31
2022/03/31 04:06:38;;;;;;;;;;;3.00;99.90;;;;;;2602237;54;20690;31
2022/03/31 04:09:13;;;;;;;;;;;2.90;99.90;;;;;;2621867;46;20783;31
2022/03/31 04:11:48;;;;;;;;;;;2.90;99.90;;;;;;2620924;46;19943;31
2022/03/31 04:14:27;;;;;;;;;;;2.90;99.90;;;;;;2602957;54;19994;31
2022/03/31 04:17:19;;;;;;;;;;;2.90;99.90;;;;;;2621778;46;20680;31
2022/03/31 04:19:59;;;;;;;;;;;2.90;99.90;;;;;;2602857;54;19934;31
2022/03/31 04:22:38;;;;;;;;;;;2.90;99.90;;;;;;2602820;54;21515;31
2022/03/31 04:25:13;;;;;;;;;;;2.80;99.90;;;;;;2603175;54;20740;31
2022/03/31 04:27:50;;;;;;;;;;;2.90;99.90;;;;;;2621606;46;19935;31
2022/03/31 04:30:26;;;;;;;;;;;2.80;99.90;;;;;;2621108;46;21121;31
2022/03/31 04:33:05;;;;;;;;;;;2.90;99.90;;;;;;2602791;54;20501;31
2022/03/31 04:35:41;;;;;;;;;;;2.80;99.90;;;;;;2602700;54;20543;31
2022/03/31 04:38:20;;;;;;;;;;;2.80;99.90;;;;;;2602539;54;19942;31
2022/03/31 04:40:58;;;;;;;;;;;2.80;99.90;;;;;;2621067;47;20783;31
2022/03/31 04:43:34;;;;;;;;;;;2.80;99.90;;;;;;2603787;54;20730;31
2022/03/31 04:46:10;;;;;;;;;;;2.80;99.90;;;;;;2603783;54;19950;31
2022/03/31 04:48:46;;;;;;;;;;;2.80;99.90;;;;;;2621972;46;19935;31
2022/03/31 04:51:23;;;;;;;;;;;2.80;99.90;;;;;;2603540;54;19941;31
2022/03/31 04:54:13;;;;;;;;;;;2.80;99.90;;;;;;2622287;46;19938;31
2022/03/31 04:56:49;;;;;;;;;;;2.80;99.90;;;;;;2603614;54;21488;31
2022/03/31 04:59:23;;;;;;;;;;;2.70;99.90;;;;;;2603300;54;19943;31
2022/03/31 05:01:57;;;;;;;;;;;2.90;99.90;;;;;;2603673;54;20662;31
2022/03/31 05:04:37;;;;;;;;;;;2.90;99.90;;;;;;2603147;54;20755;31
2022/03/31 05:07:12;;;;;;;;;;;2.90;99.90;;;;;;2621856;46;19935;31
2022/03/31 05:09:49;;;;;;;;;;;3.00;99.90;;;;;;2702057;39;21490;31
2022/03/31 05:12:29;;;;;;;;;;;3.00;99.90;;;;;;2702222;39;21390;31
2022/03/31 05:15:03;;;;;;;;;;;2.90;99.90;;;;;;2602814;54;19949;31
2022/03/31 05:17:41;;;;;;;;;;;2.90;99.90;;;;;;2602909;54;20819;31
2022/03/31 05:20:21;;;;;;;;;;;2.80;99.90;;;;;;2603617;54;20688;31
2022/03/31 05:23:00;;;;;;;;;;;2.80;99.90;;;;;;2603753;54;20489;31
2022/03/31 05:25:34;;;;;;;;;;;2.80;99.90;;;;;;2621720;46;20737;31
2022/03/31 05:28:18;;;;;;;;;;;2.70;99.90;;;;;;2603465;54;19935;31
2022/03/31 05:30:55;;;;;;;;;;;2.70;99.90;;;;;;2603261;54;19934;31
2022/03/31 05:33:34;;;;;;;;;;;2.70;99.90;;;;;;2603522;54;20021;31
2022/03/31 05:36:07;;;;;;;;;;;2.70;99.90;;;;;;2720578;39;22315;31
2022/03/31 05:38:41;;;;;;;;;;;2.60;99.90;;;;;;2720626;39;21423;31
2022/03/31 05:41:16;;;;;;;;;;;2.60;99.90;;;;;;2720656;39;21444;31
2022/03/31 05:43:57;;;;;;;;;;;2.60;99.90;;;;;;2603529;54;20752;31
2022/03/31 05:46:31;;;;;;;;;;;2.50;99.90;;;;;;2621942;46;19954;31
2022/03/31 05:49:07;;;;;;;;;;;2.50;99.90;;;;;;2621854;46;19940;31
2022/03/31 05:51:41;;;;;;;;;;;2.50;99.90;;;;;;2604445;46;19942;31
2022/03/31 05:54:16;;;;;;;;;;;2.40;99.90;;;;;;2622126;46;20782;31
2022/03/31 05:56:52;;;;;;;;;;;2.40;99.90;;;;;;2603541;54;21483;31
2022/03/31 05:59:34;;;;;;;;;;;2.40;99.90;;;;;;2622123;46;19985;31
2022/03/31 06:02:08;;;;;;;;;;;2.40;99.90;;;;;;2613253;46;20732;31
2022/03/31 06:05:05;;;;;;;;;;;2.40;99.90;;;;;;2622129;46;19938;31
2022/03/31 06:07:39;;;;;;;;;;;2.40;99.90;;;;;;2602743;54;19942;31
2022/03/31 06:10:15;;;;;;;;;;;2.40;99.90;;;;;;2603345;54;19958;31
2022/03/31 06:12:54;;;;;;;;;;;2.40;99.90;;;;;;2603364;54;19942;31
2022/03/31 06:15:34;;;;;;;;;;;2.40;99.90;;;;;;2603334;54;19943;31
2022/03/31 06:18:09;;;;;;;;;;;2.40;99.90;;;;;;2602727;54;20701;31
2022/03/31 06:20:45;;;;;;;;;;;2.30;99.90;;;;;;2622129;46;19934;31
2022/03/31 06:23:20;;;;;;;;;;;2.30;99.90;;;;;;2602676;54;19946;31
2022/03/31 06:25:55;;;;;;;;;;;2.30;99.90;;;;;;2603267;54;20769;31
2022/03/31 06:28:31;;;;;;;;;;;2.30;99.90;;;;;;2621861;46;20792;31
2022/03/31 06:31:09;;;;;;;;;;;2.20;99.90;;;;;;2603242;54;19941;31
2022/03/31 06:33:43;;;;;;;;;;;2.20;99.90;;;;;;2603200;54;19935;31
2022/03/31 06:36:18;;;;;;;;;;;2.20;99.90;;;;;;2621962;46;19935;31
2022/03/31 06:38:55;;;;;;;;;;;2.10;99.90;;;;;;2602690;54;20786;31
2022/03/31 06:41:30;;;;;;;;;;;2.10;99.90;;;;;;2602567;54;20231;31
2022/03/31 06:44:07;;;;;;;;;;;2.00;99.90;;;;;;2621221;46;20746;31
2022/03/31 06:46:47;;;;;;;;;;;2.10;99.90;;;;;;2603252;54;20802;31
2022/03/31 06:49:21;;;;;;;;;;;2.10;99.90;;;;;;2621774;46;21236;31
2022/03/31 06:51:56;;;;;;;;;;;2.10;99.90;;;;;;2621272;46;20740;31
2022/03/31 06:54:32;;;;;;;;;;;2.10;99.90;;;;;;2621506;46;20018;31
2022/03/31 06:57:09;;;;;;;;;;;2.10;99.90;;;;;;2603438;54;20728;31
2022/03/31 06:59:44;;;;;;;;;;;2.10;99.90;;;;;;2603447;54;20025;31
2022/03/31 07:02:27;;;;;;;;;;;2.10;99.90;;;;;;2621938;46;20708;31
2022/03/31 07:05:02;;;;;;;;;;;2.10;99.90;;;;;;2603058;54;19943;31
2022/03/31 07:07:47;;;;;;;;;;;2.10;99.90;;;;;;2602432;54;19942;31
2022/03/31 07:10:22;;;;;;;;;;;2.10;99.90;;;;;;2603429;54;20781;31
2022/03/31 07:12:56;;;;;;;;;;;2.10;99.90;;;;;;2602304;54;19934;31
2022/03/31 07:15:33;;;;;;;;;;;2.10;99.90;;;;;;2602490;54;20695;31
2022/03/31 07:18:10;;;;;;;;;;;2.10;99.90;;;;;;2621734;46;19941;31
2022/03/31 07:20:49;;;;;;;;;;;2.20;99.90;;;;;;2603298;54;20783;31
2022/03/31 07:23:25;;;;;;;;;;;2.20;99.90;;;;;;2603089;54;20792;31
2022/03/31 07:26:04;;;;;;;;;;;2.20;99.90;;;;;;2603186;54;19938;31
2022/03/31 07:28:42;;;;;;;;;;;2.20;99.90;;;;;;2617929;46;19946;31
2022/03/31 07:31:17;;;;;;;;;;;2.20;99.90;;;;;;2620880;46;20762;31
2022/03/31 07:33:52;;;;;;;;;;;2.10;99.90;;;;;;2621307;46;19976;31
2022/03/31 07:36:29;;;;;;;;;;;2.10;99.90;;;;;;2602831;54;19964;31
2022/03/31 07:39:04;;;;;;;;;;;2.10;99.90;;;;;;2603105;54;19935;31
2022/03/31 07:41:39;;;;;;;;;;;2.20;99.90;;;;;;2619997;46;20804;31
2022/03/31 07:44:15;;;;;;;;;;;2.20;99.90;;;;;;2603357;54;19934;31
2022/03/31 07:46:54;;;;;;;;;;;2.20;99.90;;;;;;2602974;54;19935;31
2022/03/31 07:49:33;;;;;;;;;;;2.20;99.90;;;;;;2602221;54;19935;31
2022/03/31 07:52:12;;;;;;;;;;;2.20;99.90;;;;;;2602438;54;19935;31
2022/03/31 07:55:12;;;;;;;;;;;2.20;99.90;;;;;;2602876;54;20584;31
2022/03/31 07:57:46;;;;;;;;;;;2.80;99.90;;;;;;2621506;46;19941;31
2022/03/31 08:00:27;;;;;;;;;;;2.30;99.90;;;;;;2602175;54;19935;31
2022/03/31 08:03:04;;;;;;;;;;;2.30;99.90;;;;;;2602418;54;20762;31
2022/03/31 08:05:40;;;;;;;;;;;2.30;99.90;;;;;;2603171;54;19977;31
2022/03/31 08:08:14;;;;;;;;;;;2.30;99.90;;;;;;2602964;54;19934;31
2022/03/31 08:10:53;;;;;;;;;;;2.30;99.90;;;;;;2602951;54;19947;31
2022/03/31 08:13:29;;;;;;;;;;;2.30;99.90;;;;;;2608796;46;19934;31
2022/03/31 08:16:09;;;;;;;;;;;2.30;99.90;;;;;;2615384;46;19948;31
2022/03/31 08:18:47;;;;;;;;;;;2.30;99.90;;;;;;2603188;54;20779;31
2022/03/31 08:21:25;;;;;;;;;;;2.30;99.90;;;;;;2613116;46;21789;31
2022/03/31 08:24:02;;;;;;;;;;;2.30;99.90;;;;;;2602949;54;19935;31
2022/03/31 08:26:41;;;;;;;;;;;2.60;99.90;;;;;;2602827;54;20750;31
2022/03/31 08:29:16;;;;;;;;;;;2.40;99.90;;;;;;2621242;46;19934;31
2022/03/31 08:31:49;;;;;;;;;;;2.40;99.90;;;;;;2602954;54;21072;31
2022/03/31 08:34:23;;;;;;;;;;;2.50;99.90;;;;;;2602149;54;19943;31
2022/03/31 08:37:06;;;;;;;;;;;2.40;99.90;;;;;;2621278;47;19942;31
2022/03/31 08:39:41;;;;;;;;;;;2.40;99.90;;;;;;2602231;54;20747;31
2022/03/31 08:42:19;;;;;;;;;;;2.40;99.90;;;;;;2701549;39;22361;31
2022/03/31 08:44:54;;;;;;;;;;;2.40;99.90;;;;;;2621622;47;20748;31
2022/03/31 08:47:28;;;;;;;;;;;2.50;99.90;;;;;;2621301;47;19942;31
2022/03/31 08:50:24;;;;;;;;;;;2.50;99.90;;;;;;2621064;47;19934;31
2022/03/31 08:52:59;;;;;;;;;;;2.50;99.90;;;;;;2603831;47;20733;31
2022/03/31 08:55:33;;;;;;;;;;;2.50;99.90;;;;;;2602658;54;19993;31
2022/03/31 08:58:14;;;;;;;;;;;2.60;99.90;;;;;;2621352;47;19934;31
2022/03/31 09:00:52;;;;;;;;;;;2.60;99.90;;;;;;2602807;54;19946;31
2022/03/31 09:03:29;;;;;;;;;;;2.60;99.90;;;;;;2602783;54;19938;31
2022/03/31 09:06:04;;;;;;;;;;;2.60;99.90;;;;;;2620634;47;19993;31
2022/03/31 09:08:38;;;;;;;;;;;2.70;99.90;;;;;;2602665;54;19941;31
2022/03/31 09:11:17;;;;;;;;;;;2.70;99.90;;;;;;2602693;54;19934;31
2022/03/31 09:13:56;;;;;;;;;;;2.70;99.90;;;;;;2602123;54;20757;31
2022/03/31 09:16:37;;;;;;;;;;;2.80;99.90;;;;;;2601850;54;19946;31
2022/03/31 09:19:13;;;;;;;;;;;2.80;99.90;;;;;;2621184;47;19935;31
2022/03/31 09:21:53;;;;;;;;;;;2.80;99.90;;;;;;2602637;54;19962;31
2022/03/31 09:24:29;;;;;;;;;;;2.80;99.90;;;;;;2602600;54;20662;31
2022/03/31 09:27:04;;;;;;;;;;;2.90;99.90;;;;;;2615683;47;19942;31
2022/03/31 09:29:42;;;;;;;;;;;2.90;99.90;;;;;;2603292;54;19950;31
2022/03/31 09:32:19;;;;;;;;;;;3.00;99.90;;;;;;2603352;54;19935;31
2022/03/31 09:34:54;;;;;;;;;;;3.00;99.90;;;;;;2615429;46;19947;31
2022/03/31 09:37:32;;;;;;;;;;;3.00;99.90;;;;;;2602659;54;19942;31
2022/03/31 09:40:09;;;;;;;;;;;3.00;99.90;;;;;;2602761;54;20665;31
2022/03/31 09:42:56;;;;;;;;;;;3.10;99.90;;;;;;2603368;54;19941;31
2022/03/31 09:45:33;;;;;;;;;;;3.10;99.90;;;;;;2603366;54;20036;31
2022/03/31 09:48:20;;;;;;;;;;;3.10;99.90;;;;;;2602542;54;19934;31
2022/03/31 09:50:59;;;;;;;;;;;3.10;99.90;;;;;;2603694;54;20686;31
2022/03/31 09:53:35;;;;;;;;;;;3.20;99.90;;;;;;2603762;54;19935;31
2022/03/31 09:56:10;;;;;;;;;;;3.20;99.90;;;;;;2618477;46;20053;31
2022/03/31 09:58:46;;;;;;;;;;;3.30;99.90;;;;;;2602748;54;19946;31
2022/03/31 10:01:22;;;;;;;;;;;3.30;99.90;;;;;;2618305;46;20001;31
2022/03/31 10:04:02;;;;;;;;;;;3.40;99.90;;;;;;2603620;54;20756;31
2022/03/31 10:06:45;;;;;;;;;;;3.50;99.90;;;;;;2603274;54;19939;31
2022/03/31 10:09:22;;;;;;;;;;;3.50;99.90;;;;;;2603176;54;20728;31
2022/03/31 10:12:03;;;;;;;;;;;3.60;99.90;;;;;;2621778;46;19941;31
2022/03/31 10:14:40;;;;;;;;;;;3.60;99.90;;;;;;2603047;54;20021;31
2022/03/31 10:17:16;;;;;;;;;;;3.60;99.90;;;;;;2621918;46;19939;31
2022/03/31 10:19:50;;;;;;;;;;;3.70;99.90;;;;;;2621850;46;19934;31
2022/03/31 10:25:15;;;;;;;;;;;3.70;99.90;;;;;;2603145;54;19935;31
2022/03/31 10:27:52;;;;;;;;;;;3.70;99.90;;;;;;2603236;54;19934;31
2022/03/31 10:30:26;;;;;;;;;;;3.80;99.90;;;;;;2603342;54;20760;31
2022/03/31 10:33:04;;;;;;;;;;;3.80;99.90;;;;;;2603182;54;19934;31
2022/03/31 10:35:40;;;;;;;;;;;3.90;99.90;;;;;;2602507;54;20711;31
2022/03/31 10:38:20;;;;;;;;;;;3.90;99.90;;;;;;2620902;46;19934;31
2022/03/31 10:40:55;;;;;;;;;;;3.90;99.90;;;;;;2621449;47;19946;31
2022/03/31 10:43:32;;;;;;;;;;;3.90;99.90;;;;;;2606972;46;19934;31
2022/03/31 10:46:10;;;;;;;;;;;3.90;99.90;;;;;;2603138;54;19986;31
2022/03/31 10:48:50;;;;;;;;;;;3.90;99.90;;;;;;2621853;46;20851;31
2022/03/31 10:51:33;;;;;;;;;;;3.90;99.90;;;;;;2621406;46;19942;31
2022/03/31 10:54:14;;;;;;;;;;;4.00;99.90;;;;;;2603174;54;19941;31
2022/03/31 10:56:49;;;;;;;;;;;4.00;99.90;;;;;;2607956;46;20003;31
2022/03/31 10:59:25;;;;;;;;;;;4.10;99.90;;;;;;2603311;54;20766;31
2022/03/31 11:02:04;;;;;;;;;;;4.10;99.90;;;;;;2603157;54;20736;31
2022/03/31 11:04:45;;;;;;;;;;;4.10;99.90;;;;;;2621843;46;20795;31
2022/03/31 11:07:20;;;;;;;;;;;4.10;99.90;;;;;;2602249;54;19990;31
2022/03/31 11:10:05;;;;;;;;;;;4.20;99.90;;;;;;2603084;54;19942;31
2022/03/31 11:12:40;;;;;;;;;;;4.10;99.90;;;;;;2603165;54;19961;31
2022/03/31 11:15:20;;;;;;;;;;;4.10;99.90;;;;;;2603203;54;19940;31
2022/03/31 11:18:00;;;;;;;;;;;4.20;99.90;;;;;;2621397;46;20724;31
2022/03/31 11:20:35;;;;;;;;;;;4.30;99.90;;;;;;2603029;54;20666;31
2022/03/31 11:23:11;;;;;;;;;;;4.30;99.90;;;;;;2621522;46;20054;31
2022/03/31 11:25:50;;;;;;;;;;;4.30;99.90;;;;;;2621153;46;19934;31
2022/03/31 11:28:24;;;;;;;;;;;4.30;99.90;;;;;;2621299;46;19942;31
2022/03/31 11:31:06;;;;;;;;;;;4.30;99.90;;;;;;2603181;54;19934;31
2022/03/31 11:33:41;;;;;;;;;;;4.30;99.90;;;;;;2621423;46;19935;31
2022/03/31 11:36:20;;;;;;;;;;;4.30;99.90;;;;;;2603091;54;20806;31
2022/03/31 11:38:58;;;;;;;;;;;4.40;99.90;;;;;;2621468;46;20807;31
2022/03/31 11:41:42;;;;;;;;;;;4.50;99.90;;;;;;2602393;54;21852;31
2022/03/31 11:44:31;;;;;;;;;;;4.50;99.90;;;;;;2603127;54;19941;31
2022/03/31 11:47:06;;;;;;;;;;;4.50;99.90;;;;;;2602984;54;20647;31
2022/03/31 11:49:43;;;;;;;;;;;4.50;99.90;;;;;;2621507;46;19934;31
2022/03/31 11:52:17;;;;;;;;;;;4.50;99.90;;;;;;2602750;54;19934;31
2022/03/31 11:54:53;;;;;;;;;;;4.60;99.90;;;;;;2602670;54;21512;31
2022/03/31 11:57:33;;;;;;;;;;;4.50;99.90;;;;;;2621498;46;20742;31
2022/03/31 12:00:12;;;;;;;;;;;4.60;99.90;;;;;;2603085;54;19934;31
2022/03/31 12:02:56;;;;;;;;;;;4.60;99.90;;;;;;2621608;46;19950;31
2022/03/31 12:05:34;;;;;;;;;;;4.60;99.90;;;;;;2621449;46;19968;31
2022/03/31 12:08:11;;;;;;;;;;;4.60;99.90;;;;;;2618833;46;20041;31
2022/03/31 12:10:46;;;;;;;;;;;4.60;99.90;;;;;;2602921;54;20517;31
2022/03/31 12:13:24;;;;;;;;;;;4.60;99.90;;;;;;2602948;54;19964;31
2022/03/31 12:16:02;;;;;;;;;;;4.60;99.90;;;;;;2611561;46;19945;31
2022/03/31 12:18:40;;;;;;;;;;;4.90;99.90;;;;;;2602307;54;20000;31
2022/03/31 12:21:21;;;;;;;;;;;4.60;99.90;;;;;;2610695;46;19942;31
2022/03/31 12:24:00;;;;;;;;;;;4.60;99.90;;;;;;2602790;54;19993;31
2022/03/31 12:26:57;;;;;;;;;;;4.60;99.90;;;;;;2602826;54;20708;31
2022/03/31 12:29:36;;;;;;;;;;;4.60;99.90;;;;;;2603177;54;20755;31
2022/03/31 12:32:13;;;;;;;;;;;4.60;99.90;;;;;;2603097;54;19938;31
2022/03/31 12:34:55;;;;;;;;;;;4.60;99.90;;;;;;2602842;54;19993;31
2022/03/31 12:37:31;;;;;;;;;;;4.60;99.90;;;;;;2621339;46;20803;31
2022/03/31 12:40:09;;;;;;;;;;;4.60;99.90;;;;;;2701523;39;21511;31
2022/03/31 12:42:56;;;;;;;;;;;4.60;99.90;;;;;;2602703;54;19993;31
2022/03/31 12:48:04;;;;;;;;;;;4.60;99.90;;;;;;2602731;54;20786;31
2022/03/31 12:50:40;;;;;;;;;;;4.60;99.90;;;;;;2602611;54;20748;31
2022/03/31 12:53:17;;;;;;;;;;;4.60;99.90;;;;;;2602883;54;20807;31
2022/03/31 12:55:53;;;;;;;;;;;4.60;99.90;;;;;;2602885;54;21500;31
2022/03/31 12:58:28;;;;;;;;;;;4.60;99.90;;;;;;2621378;47;21295;31
2022/03/31 13:01:04;;;;;;;;;;;4.60;99.90;;;;;;2602682;54;21240;31
2022/03/31 13:03:46;;;;;;;;;;;4.60;99.90;;;;;;2603244;54;20481;31
2022/03/31 13:06:21;;;;;;;;;;;4.60;99.90;;;;;;2702154;39;21464;31
2022/03/31 13:08:59;;;;;;;;;;;4.60;99.90;;;;;;2603236;54;21257;31
2022/03/31 13:11:39;;;;;;;;;;;4.60;99.90;;;;;;2701943;39;20440;31
2022/03/31 13:14:19;;;;;;;;;;;4.60;99.90;;;;;;2603605;54;20706;31
2022/03/31 13:16:54;;;;;;;;;;;4.50;99.90;;;;;;2702123;39;20394;31
2022/03/31 13:19:36;;;;;;;;;;;4.50;99.90;;;;;;2603333;54;19943;31
2022/03/31 13:22:11;;;;;;;;;;;4.50;99.90;;;;;;2603580;54;20768;31
2022/03/31 13:24:46;;;;;;;;;;;4.50;99.90;;;;;;2603502;54;19941;31
2022/03/31 13:27:25;;;;;;;;;;;4.50;99.90;;;;;;2621674;46;19942;31
2022/03/31 13:30:01;;;;;;;;;;;4.50;99.90;;;;;;2603488;54;19934;31
2022/03/31 13:32:38;;;;;;;;;;;4.40;99.90;;;;;;2603444;54;20774;31
2022/03/31 13:35:16;;;;;;;;;;;4.40;99.90;;;;;;2603456;54;19942;31
2022/03/31 13:37:53;;;;;;;;;;;4.40;99.90;;;;;;2622068;46;19934;31
2022/03/31 13:40:31;;;;;;;;;;;4.40;99.90;;;;;;2602587;54;19946;31
2022/03/31 13:43:07;;;;;;;;;;;4.40;99.90;;;;;;2602800;54;20650;31
2022/03/31 13:45:41;;;;;;;;;;;4.30;99.90;;;;;;2621914;46;19942;31
2022/03/31 13:48:16;;;;;;;;;;;4.30;99.90;;;;;;2621853;46;20786;31
2022/03/31 13:50:55;;;;;;;;;;;4.30;99.90;;;;;;2603391;54;19941;31
2022/03/31 13:56:15;;;;;;;;;;;4.30;99.90;;;;;;2603383;54;19980;31
2022/03/31 14:01:38;;;;;;;;;;;4.40;99.90;;;;;;2603363;54;19941;31
2022/03/31 14:04:13;;;;;;;;;;;4.40;99.90;;;;;;2603182;54;19981;31
2022/03/31 14:06:51;;;;;;;;;;;4.40;99.90;;;;;;2603264;54;19941;31
2022/03/31 14:09:27;;;;;;;;;;;4.50;99.90;;;;;;2603357;54;20028;31
2022/03/31 14:12:06;;;;;;;;;;;4.50;99.90;;;;;;2603416;54;20716;31
2022/03/31 14:14:49;;;;;;;;;;;4.50;99.90;;;;;;2621932;46;20765;31
2022/03/31 14:17:24;;;;;;;;;;;4.50;99.90;;;;;;2621829;46;19934;31
2022/03/31 14:19:59;;;;;;;;;;;4.50;99.90;;;;;;2621889;46;19941;31
2022/03/31 14:22:37;;;;;;;;;;;4.50;99.90;;;;;;2603498;54;22331;31
2022/03/31 14:25:13;;;;;;;;;;;4.50;99.90;;;;;;2603426;54;19935;31
2022/03/31 14:27:47;;;;;;;;;;;4.50;99.90;;;;;;2616460;46;19969;31
2022/03/31 14:30:22;;;;;;;;;;;4.50;99.90;;;;;;2603459;54;20745;31
2022/03/31 14:32:57;;;;;;;;;;;4.50;99.90;;;;;;2621810;46;19946;31
2022/03/31 14:35:33;;;;;;;;;;;4.50;99.90;;;;;;2603246;54;19934;31
2022/03/31 14:38:10;;;;;;;;;;;4.50;99.90;;;;;;2603139;54;19946;31
2022/03/31 14:40:45;;;;;;;;;;;4.60;99.90;;;;;;2603394;54;20661;31
2022/03/31 14:43:20;;;;;;;;;;;4.60;99.90;;;;;;2621287;46;20709;31
2022/03/31 14:45:55;;;;;;;;;;;4.60;99.90;;;;;;2602990;54;20779;31
2022/03/31 14:48:30;;;;;;;;;;;4.60;99.90;;;;;;2621385;46;19942;31
2022/03/31 14:51:08;;;;;;;;;;;4.80;99.90;;;;;;2602510;54;19966;31
2022/03/31 14:53:45;;;;;;;;;;;4.80;99.90;;;;;;2621616;46;20670;31
2022/03/31 14:56:19;;;;;;;;;;;4.80;99.90;;;;;;2603082;54;20005;31
2022/03/31 14:58:54;;;;;;;;;;;4.70;99.90;;;;;;2602655;54;20665;31
2022/03/31 15:01:29;;;;;;;;;;;4.80;99.90;;;;;;2603395;54;19934;31
2022/03/31 15:04:04;;;;;;;;;;;4.70;99.90;;;;;;2621610;46;19935;31
2022/03/31 15:06:40;;;;;;;;;;;4.70;99.90;;;;;;2615329;46;19947;31
2022/03/31 15:14:52;;;;;;;;;;;4.70;99.90;;;;;;2621954;46;20651;31
2022/03/31 15:17:28;;;;;;;;;;;4.70;99.90;;;;;;2602981;54;19941;31
2022/03/31 15:20:05;;;;;;;;;;;4.70;99.90;;;;;;2602801;54;19942;31
2022/03/31 15:22:38;;;;;;;;;;;4.70;99.90;;;;;;2621729;46;20071;31
2022/03/31 15:25:16;;;;;;;;;;;4.70;99.90;;;;;;2621628;46;20851;31
2022/03/31 15:27:51;;;;;;;;;;;4.70;99.90;;;;;;2603382;54;20762;31
2022/03/31 15:30:26;;;;;;;;;;;4.70;99.90;;;;;;2621515;46;20025;31
2022/03/31 15:33:01;;;;;;;;;;;4.70;99.90;;;;;;2602754;54;19934;31
2022/03/31 15:35:39;;;;;;;;;;;4.70;99.90;;;;;;2603298;54;19941;31
2022/03/31 15:38:13;;;;;;;;;;;4.70;99.90;;;;;;2602955;54;19935;31
2022/03/31 15:40:50;;;;;;;;;;;4.70;99.90;;;;;;2603044;54;20758;31
2022/03/31 15:43:25;;;;;;;;;;;4.70;99.90;;;;;;2621784;46;20863;31
2022/03/31 15:46:00;;;;;;;;;;;4.60;99.90;;;;;;2603137;54;19986;31
2022/03/31 15:48:34;;;;;;;;;;;4.70;99.90;;;;;;2603147;54;20748;31
2022/03/31 15:51:11;;;;;;;;;;;4.80;99.90;;;;;;2603117;54;20019;31
2022/03/31 15:53:45;;;;;;;;;;;4.90;99.90;;;;;;2603068;54;19990;31
2022/03/31 15:56:24;;;;;;;;;;;4.90;99.90;;;;;;2602824;54;20732;31
2022/03/31 15:58:59;;;;;;;;;;;5.00;99.90;;;;;;2621253;46;19938;31
2022/03/31 16:01:36;;;;;;;;;;;5.00;99.90;;;;;;2621635;46;19980;31